createdAt,value
2022-12-28T00:01:40.069Z,26.94
2022-12-28T00:04:10.912Z,26.97
2022-12-28T00:06:42.164Z,26.98
2022-12-28T00:09:15.460Z,27.02
2022-12-28T00:11:46.100Z,27.04
2022-12-28T00:14:16.728Z,27.08
2022-12-28T00:16:47.490Z,27.16
2022-12-28T00:19:18.706Z,27.10
2022-12-28T00:21:49.453Z,27.16
2022-12-28T00:24:22.406Z,27.23
2022-12-28T00:26:53.554Z,27.33
2022-12-28T00:29:24.273Z,27.43
2022-12-28T00:31:54.978Z,27.43
2022-12-28T00:34:27.442Z,27.46
2022-12-28T00:37:08.925Z,27.46
2022-12-28T00:39:42.596Z,27.40
2022-12-28T00:42:13.451Z,27.39
2022-12-28T00:44:44.169Z,27.36
2022-12-28T00:47:14.787Z,27.36
2022-12-28T00:49:45.557Z,27.34
2022-12-28T00:52:16.536Z,27.34
2022-12-28T00:54:47.086Z,27.36
2022-12-28T00:57:17.702Z,27.37
2022-12-28T00:59:48.236Z,27.37
2022-12-28T01:02:18.870Z,27.38
2022-12-28T01:04:52.553Z,27.40
2022-12-28T01:07:23.539Z,27.39
2022-12-28T01:09:54.078Z,27.40
2022-12-28T01:12:24.975Z,27.41
2022-12-28T01:14:55.576Z,27.40
2022-12-28T01:17:28.081Z,27.41
2022-12-28T01:19:58.591Z,27.42
2022-12-28T01:22:29.630Z,27.42
2022-12-28T01:25:01.249Z,27.42
2022-12-28T01:27:32.116Z,27.43
2022-12-28T01:30:04.922Z,27.39
2022-12-28T01:32:35.795Z,27.43
2022-12-28T01:35:06.590Z,27.43
2022-12-28T01:37:37.905Z,27.44
2022-12-28T01:40:08.724Z,27.45
2022-12-28T01:42:41.345Z,27.45
2022-12-28T01:45:22.915Z,27.46
2022-12-28T01:47:56.858Z,27.46
2022-12-28T01:50:30.008Z,27.47
2022-12-28T01:53:04.735Z,27.48
2022-12-28T01:55:41.839Z,27.49
2022-12-28T01:58:20.859Z,27.51
2022-12-28T02:00:51.857Z,27.51
2022-12-28T02:03:28.231Z,27.53
2022-12-28T02:06:00.726Z,27.53
2022-12-28T02:08:39.881Z,27.55
2022-12-28T02:11:13.579Z,27.56
2022-12-28T02:13:46.590Z,27.55
2022-12-28T02:16:17.319Z,27.59
2022-12-28T02:18:49.360Z,27.60
2022-12-28T02:21:29.434Z,27.61
2022-12-28T02:24:03.088Z,27.63
2022-12-28T02:26:40.387Z,27.61
2022-12-28T02:29:19.298Z,27.66
2022-12-28T02:31:49.763Z,27.67
2022-12-28T02:34:29.050Z,27.69
2022-12-28T02:37:06.625Z,27.67
2022-12-28T02:39:41.050Z,27.72
2022-12-28T02:42:13.504Z,27.74
2022-12-28T02:45:02.449Z,27.75
2022-12-28T02:47:50.981Z,27.76
2022-12-28T02:50:22.226Z,27.78
2022-12-28T02:53:15.859Z,27.80
2022-12-28T02:56:10.931Z,27.81
2022-12-28T02:58:44.749Z,27.84
2022-12-28T03:01:25.859Z,27.86
2022-12-28T03:04:07.005Z,27.87
2022-12-28T03:07:00.941Z,27.88
2022-12-28T03:09:51.997Z,27.92
2022-12-28T03:12:30.229Z,27.94
2022-12-28T03:15:13.221Z,27.95
2022-12-28T03:18:04.511Z,27.97
2022-12-28T03:20:53.296Z,28.00
2022-12-28T03:23:43.676Z,28.02
2022-12-28T03:26:33.978Z,28.03
2022-12-28T03:29:24.939Z,28.06
2022-12-28T03:31:55.849Z,28.09
2022-12-28T03:34:26.701Z,28.10
2022-12-28T03:36:57.645Z,28.14
2022-12-28T03:39:39.129Z,28.15
2022-12-28T03:42:31.039Z,28.16
2022-12-28T03:45:05.193Z,28.16
2022-12-28T03:47:37.847Z,28.22
2022-12-28T03:50:08.846Z,28.24
2022-12-28T03:52:39.855Z,28.26
2022-12-28T03:55:11.007Z,28.29
2022-12-28T03:57:43.024Z,28.30
2022-12-28T04:00:19.399Z,28.34
2022-12-28T04:02:53.873Z,28.36
2022-12-28T04:05:24.834Z,28.38
2022-12-28T04:07:56.292Z,28.41
2022-12-28T04:10:26.921Z,28.43
2022-12-28T04:12:58.553Z,28.44
2022-12-28T04:15:29.126Z,28.47
2022-12-28T04:18:03.283Z,28.50
2022-12-28T04:20:34.221Z,28.52
2022-12-28T04:23:05.319Z,28.56
2022-12-28T04:25:36.327Z,28.58
2022-12-28T04:28:07.342Z,28.61
2022-12-28T04:31:16.471Z,28.64
2022-12-28T04:33:54.315Z,28.67
2022-12-28T04:36:25.120Z,28.69
2022-12-28T04:38:57.252Z,28.71
2022-12-28T04:41:28.114Z,28.73
2022-12-28T04:43:59.440Z,28.75
2022-12-28T04:46:29.956Z,28.77
2022-12-28T04:49:01.836Z,28.79
2022-12-28T04:51:32.706Z,28.82
2022-12-28T04:54:03.346Z,28.85
2022-12-28T04:56:34.075Z,28.88
2022-12-28T04:59:04.815Z,28.89
2022-12-28T05:01:35.467Z,28.92
2022-12-28T05:04:06.344Z,28.95
2022-12-28T05:06:36.988Z,28.98
2022-12-28T05:09:07.657Z,29.00
2022-12-28T05:11:38.357Z,29.03
2022-12-28T05:14:08.957Z,29.04
2022-12-28T05:16:39.521Z,29.06
2022-12-28T05:19:10.153Z,29.08
2022-12-28T05:21:41.138Z,29.10
2022-12-28T05:24:11.901Z,29.13
2022-12-28T05:26:42.485Z,29.15
2022-12-28T05:51:39.628Z,29.30
2022-12-28T05:54:10.893Z,29.33
2022-12-28T05:56:41.521Z,29.35
2022-12-28T05:59:12.846Z,29.38
2022-12-28T06:01:45.848Z,29.38
2022-12-28T06:04:21.016Z,29.41
2022-12-28T06:06:51.741Z,29.42
2022-12-28T06:09:23.150Z,29.44
2022-12-28T06:11:54.150Z,29.45
2022-12-28T06:14:25.251Z,29.47
2022-12-28T06:16:56.565Z,29.48
2022-12-28T06:19:27.209Z,29.49
2022-12-28T06:21:57.956Z,29.50
2022-12-28T06:24:28.600Z,29.51
2022-12-28T06:26:59.378Z,29.53
2022-12-28T06:29:29.895Z,29.54
2022-12-28T06:32:01.755Z,29.56
2022-12-28T06:34:32.493Z,29.59
2022-12-28T06:37:03.202Z,29.60
2022-12-28T06:39:33.811Z,29.61
2022-12-28T06:42:04.593Z,29.62
2022-12-28T06:44:39.322Z,29.63
2022-12-28T06:47:16.620Z,29.65
2022-12-28T06:49:47.144Z,29.65
2022-12-28T06:52:17.644Z,29.67
2022-12-28T06:54:50.873Z,29.69
2022-12-28T06:57:21.376Z,29.70
2022-12-28T06:59:51.917Z,29.72
2022-12-28T07:02:22.609Z,29.75
2022-12-28T07:04:53.257Z,29.77
2022-12-28T07:07:23.915Z,29.80
2022-12-28T07:09:54.432Z,29.82
2022-12-28T07:12:25.108Z,29.84
2022-12-28T07:14:55.708Z,29.88
2022-12-28T07:17:27.266Z,29.91
2022-12-28T07:19:57.874Z,29.94
2022-12-28T07:22:28.795Z,29.96
2022-12-28T07:24:59.212Z,29.99
2022-12-28T07:27:30.104Z,30.00
2022-12-28T07:30:01.609Z,30.03
2022-12-28T07:32:32.137Z,30.07
2022-12-28T07:35:02.718Z,30.10
2022-12-28T07:37:33.987Z,30.13
2022-12-28T07:40:04.822Z,30.15
2022-12-28T07:42:35.387Z,30.19
2022-12-28T07:45:06.215Z,30.21
2022-12-28T07:47:37.240Z,30.24
2022-12-28T07:50:08.196Z,30.26
2022-12-28T07:52:39.396Z,30.29
2022-12-28T07:55:10.558Z,30.31
2022-12-28T07:57:41.316Z,30.34
2022-12-28T08:00:12.523Z,30.37
2022-12-28T08:02:42.860Z,30.40
2022-12-28T08:05:13.515Z,30.42
2022-12-28T08:07:44.104Z,30.44
2022-12-28T08:10:14.697Z,30.47
2022-12-28T08:12:45.381Z,30.49
2022-12-28T08:15:16.654Z,30.53
2022-12-28T08:17:47.162Z,30.54
2022-12-28T08:20:17.911Z,30.57
2022-12-28T08:22:48.978Z,30.59
2022-12-28T08:25:19.622Z,30.60
2022-12-28T08:27:50.116Z,30.63
2022-12-28T08:30:20.909Z,30.65
2022-12-28T08:32:52.772Z,30.67
2022-12-28T08:35:23.355Z,30.69
2022-12-28T08:37:57.342Z,30.72
2022-12-28T08:40:31.287Z,30.72
2022-12-28T08:43:01.930Z,30.73
2022-12-28T08:45:32.643Z,30.76
2022-12-28T08:48:03.203Z,30.76
2022-12-28T08:50:36.504Z,30.77
2022-12-28T08:53:07.656Z,30.78
2022-12-28T08:55:38.567Z,30.78
2022-12-28T08:58:09.146Z,30.79
2022-12-28T09:00:39.828Z,30.81
2022-12-28T09:03:10.552Z,30.83
2022-12-28T09:05:41.636Z,30.84
2022-12-28T09:08:12.467Z,30.84
2022-12-28T09:10:43.425Z,30.84
2022-12-28T09:13:13.937Z,30.85
2022-12-28T09:15:44.654Z,30.82
2022-12-28T09:18:15.206Z,30.86
2022-12-28T09:20:47.972Z,30.86
2022-12-28T09:23:18.824Z,30.87
2022-12-28T09:25:49.937Z,30.86
2022-12-28T09:28:20.436Z,30.88
2022-12-28T09:30:51.279Z,30.87
2022-12-28T09:34:05.526Z,30.87
2022-12-28T09:36:36.618Z,30.87
2022-12-28T09:39:08.670Z,30.85
2022-12-28T09:41:51.473Z,30.88
2022-12-28T09:44:39.613Z,30.89
2022-12-28T09:47:11.987Z,30.90
2022-12-28T09:49:58.261Z,30.89
2022-12-28T09:52:34.987Z,30.89
2022-12-28T09:55:23.423Z,30.88
2022-12-28T09:57:56.379Z,30.88
2022-12-28T10:00:35.207Z,30.87
2022-12-28T10:03:07.711Z,30.86
2022-12-28T10:05:38.445Z,30.86
2022-12-28T10:08:12.793Z,30.81
2022-12-28T10:10:48.658Z,30.85
2022-12-28T10:16:20.635Z,30.82
2022-12-28T10:18:51.947Z,30.86
2022-12-28T10:21:30.184Z,30.87
2022-12-28T10:24:30.174Z,30.86
2022-12-28T10:26:56.686Z,30.83
2022-12-28T10:29:28.019Z,30.84
2022-12-28T10:31:59.323Z,30.85
2022-12-28T10:34:34.549Z,30.84
2022-12-28T10:37:15.477Z,30.84
2022-12-28T10:40:09.824Z,30.84
2022-12-28T10:42:45.619Z,30.81
2022-12-28T10:45:21.287Z,30.79
2022-12-28T10:47:55.779Z,30.81
2022-12-28T10:51:01.635Z,30.78
2022-12-28T10:53:34.144Z,30.70
2022-12-28T10:56:13.968Z,30.70
2022-12-28T10:58:49.587Z,30.74
2022-12-28T11:01:22.244Z,30.76
2022-12-28T11:03:59.154Z,30.76
2022-12-28T11:06:37.039Z,30.76
2022-12-28T11:09:19.695Z,30.76
2022-12-28T11:11:51.637Z,30.76
2022-12-28T11:14:28.377Z,30.76
2022-12-28T11:16:59.678Z,30.76
2022-12-28T11:19:30.246Z,30.76
2022-12-28T11:22:01.111Z,30.75
2022-12-28T11:24:37.665Z,30.75
2022-12-28T11:27:15.481Z,30.72
2022-12-28T11:29:48.264Z,30.72
2022-12-28T11:32:31.151Z,30.70
2022-12-28T11:35:03.010Z,30.68
2022-12-28T11:37:33.710Z,30.66
2022-12-28T11:40:04.361Z,30.65
2022-12-28T11:42:40.056Z,30.64
2022-12-28T11:45:14.822Z,30.64
2022-12-28T11:47:47.310Z,30.65
2022-12-28T11:50:38.150Z,30.65
2022-12-28T11:53:26.893Z,30.64
2022-12-28T11:56:17.753Z,30.63
2022-12-28T11:59:00.936Z,30.61
2022-12-28T12:01:31.657Z,30.60
2022-12-28T12:04:02.285Z,30.59
2022-12-28T12:06:44.973Z,30.58
2022-12-28T12:09:27.691Z,30.58
2022-12-28T12:11:59.204Z,30.57
2022-12-28T12:14:34.404Z,30.56
2022-12-28T12:17:15.138Z,30.46
2022-12-28T12:19:53.967Z,30.41
2022-12-28T12:22:44.539Z,30.37
2022-12-28T12:25:18.546Z,30.32
2022-12-28T12:27:53.568Z,30.28
2022-12-28T12:30:25.742Z,30.24
2022-12-28T12:33:02.056Z,30.20
2022-12-28T12:35:40.497Z,30.17
2022-12-28T12:38:29.717Z,30.14
2022-12-28T12:41:18.677Z,30.13
2022-12-28T12:44:02.924Z,30.10
2022-12-28T12:46:51.947Z,30.10
2022-12-28T12:49:40.767Z,30.10
2022-12-28T12:52:17.267Z,30.08
2022-12-28T12:55:06.164Z,30.07
2022-12-28T12:57:37.101Z,29.98
2022-12-28T13:00:14.145Z,29.91
2022-12-28T13:02:53.924Z,29.81
2022-12-28T13:05:26.866Z,29.77
2022-12-28T13:07:59.628Z,29.73
2022-12-28T13:10:31.778Z,29.67
2022-12-28T13:13:03.278Z,29.65
2022-12-28T13:15:34.353Z,29.59
2022-12-28T13:21:04.740Z,29.52
2022-12-28T13:23:44.314Z,29.50
2022-12-28T13:26:16.798Z,29.46
2022-12-28T13:28:51.853Z,29.42
2022-12-28T13:31:24.200Z,29.41
2022-12-28T13:33:56.304Z,29.41
2022-12-28T13:36:27.411Z,29.38
2022-12-28T13:39:15.603Z,29.37
2022-12-28T13:41:51.347Z,29.35
2022-12-28T13:44:24.708Z,29.35
2022-12-28T13:47:21.516Z,29.33
2022-12-28T13:50:25.664Z,29.33
2022-12-28T13:52:59.706Z,29.32
2022-12-28T13:55:33.122Z,29.29
2022-12-28T13:58:05.805Z,29.31
2022-12-28T14:00:38.600Z,29.29
2022-12-28T14:03:15.002Z,29.29
2022-12-28T14:05:51.199Z,29.28
2022-12-28T14:08:22.115Z,29.27
2022-12-28T14:10:53.190Z,29.07
2022-12-28T14:13:24.819Z,29.17
2022-12-28T14:15:56.402Z,29.18
2022-12-28T14:18:27.874Z,29.16
2022-12-28T14:20:59.614Z,29.13
2022-12-28T14:23:31.850Z,29.11
2022-12-28T14:26:04.915Z,29.07
2022-12-28T14:28:49.678Z,29.03
2022-12-28T14:31:26.393Z,29.00
2022-12-28T14:34:04.967Z,28.97
2022-12-28T14:36:44.202Z,28.94
2022-12-28T14:39:32.999Z,28.93
2022-12-28T14:42:05.481Z,28.90
2022-12-28T14:44:41.829Z,28.89
2022-12-28T14:47:30.675Z,28.85
2022-12-28T14:50:02.361Z,28.83
2022-12-28T14:52:38.039Z,28.82
2022-12-28T14:55:23.747Z,28.80
2022-12-28T14:58:01.209Z,28.77
2022-12-28T15:00:33.395Z,28.76
2022-12-28T15:03:17.676Z,28.75
2022-12-28T15:05:51.615Z,28.74
2022-12-28T15:08:24.069Z,28.70
2022-12-28T15:10:56.752Z,28.72
2022-12-28T15:13:28.431Z,28.71
2022-12-28T15:16:03.097Z,28.69
2022-12-28T15:18:34.697Z,28.68
2022-12-28T15:21:06.587Z,28.62
2022-12-28T15:23:37.353Z,28.62
2022-12-28T15:26:11.812Z,28.64
2022-12-28T15:28:42.623Z,28.60
2022-12-28T15:31:14.893Z,28.63
2022-12-28T15:33:46.314Z,28.64
2022-12-28T15:36:19.151Z,28.65
2022-12-28T15:38:50.523Z,28.61
2022-12-28T15:41:39.489Z,28.59
2022-12-28T15:44:10.459Z,28.59
2022-12-28T15:46:41.180Z,28.57
2022-12-28T15:49:12.937Z,28.57
2022-12-28T15:51:44.174Z,28.52
2022-12-28T15:54:15.644Z,28.51
2022-12-28T15:56:53.092Z,28.50
2022-12-28T15:59:23.619Z,28.47
2022-12-28T16:01:54.446Z,28.46
2022-12-28T16:04:25.295Z,28.44
2022-12-28T16:06:55.907Z,28.43
2022-12-28T16:09:26.806Z,28.42
2022-12-28T16:11:57.475Z,28.41
2022-12-28T16:14:28.789Z,28.41
2022-12-28T16:16:59.484Z,28.40
2022-12-28T16:19:30.539Z,28.37
2022-12-28T16:22:01.042Z,28.35
2022-12-28T16:24:31.844Z,28.35
2022-12-28T16:27:02.796Z,28.34
2022-12-28T16:29:33.642Z,28.33
2022-12-28T16:32:04.877Z,28.29
2022-12-28T16:34:35.603Z,28.28
2022-12-28T16:37:06.282Z,28.28
2022-12-28T16:39:37.337Z,28.26
2022-12-28T16:42:09.861Z,28.26
2022-12-28T16:44:41.304Z,28.25
2022-12-28T16:47:12.830Z,28.22
2022-12-28T16:49:43.956Z,28.22
2022-12-28T16:52:14.632Z,28.19
2022-12-28T16:54:45.196Z,28.19
2022-12-28T16:57:15.979Z,28.18
2022-12-28T16:59:46.634Z,28.15
2022-12-28T17:02:17.451Z,28.15
2022-12-28T17:04:48.316Z,28.14
2022-12-28T17:07:18.820Z,28.12
2022-12-28T17:09:50.465Z,28.12
2022-12-28T17:12:21.494Z,28.12
2022-12-28T17:14:52.179Z,28.12
2022-12-28T17:17:22.931Z,28.10
2022-12-28T17:19:53.786Z,28.07
2022-12-28T17:22:24.787Z,28.07
2022-12-28T17:24:55.647Z,28.04
2022-12-28T17:27:26.912Z,28.04
2022-12-28T17:29:57.630Z,28.03
2022-12-28T17:32:28.333Z,28.00
2022-12-28T17:34:58.941Z,28.01
2022-12-28T17:37:29.617Z,28.00
2022-12-28T17:40:01.245Z,27.96
2022-12-28T17:42:31.816Z,27.95
2022-12-28T17:45:07.591Z,27.95
2022-12-28T17:47:41.685Z,27.94
2022-12-28T17:50:12.599Z,27.50
2022-12-28T17:52:43.753Z,27.93
2022-12-28T17:55:14.519Z,27.91
2022-12-28T17:57:45.583Z,27.88
2022-12-28T18:00:16.446Z,27.87
2022-12-28T18:02:48.333Z,27.85
2022-12-28T18:05:19.067Z,27.84
2022-12-28T18:07:49.665Z,27.82
2022-12-28T18:10:22.845Z,27.81
2022-12-28T18:12:53.395Z,27.80
2022-12-28T18:15:26.335Z,27.77
2022-12-28T18:18:00.358Z,27.79
2022-12-28T18:20:30.933Z,27.79
2022-12-28T18:23:02.106Z,27.77
2022-12-28T18:25:33.288Z,27.75
2022-12-28T18:28:03.987Z,27.74
2022-12-28T18:30:34.650Z,27.72
2022-12-28T18:33:05.234Z,27.71
2022-12-28T18:35:35.857Z,27.70
2022-12-28T18:38:06.383Z,27.68
2022-12-28T18:40:39.729Z,27.69
2022-12-28T18:43:10.501Z,27.66
2022-12-28T18:45:42.878Z,27.61
2022-12-28T18:48:13.348Z,27.62
2022-12-28T18:50:43.939Z,27.62
2022-12-28T18:53:14.493Z,27.60
2022-12-28T18:55:45.803Z,27.59
2022-12-28T18:58:16.457Z,27.61
2022-12-28T19:00:47.670Z,27.60
2022-12-28T19:03:18.308Z,27.61
2022-12-28T19:05:48.891Z,27.60
2022-12-28T19:08:19.383Z,27.59
2022-12-28T19:10:52.823Z,27.61
2022-12-28T19:13:23.368Z,27.60
2022-12-28T19:15:54.117Z,27.60
2022-12-28T19:18:24.727Z,27.60
2022-12-28T19:21:15.575Z,27.60
2022-12-28T19:23:46.552Z,27.59
2022-12-28T19:26:17.207Z,27.58
2022-12-28T19:28:47.790Z,27.56
2022-12-28T19:31:18.576Z,27.57
2022-12-28T19:33:49.223Z,27.56
2022-12-28T19:36:20.054Z,27.57
2022-12-28T19:38:50.546Z,27.57
2022-12-28T19:41:22.648Z,27.57
2022-12-28T19:43:53.504Z,27.55
2022-12-28T19:46:32.425Z,27.55
2022-12-28T19:49:04.646Z,27.53
2022-12-28T19:51:35.630Z,27.53
2022-12-28T19:54:06.254Z,27.52
2022-12-28T19:56:36.888Z,27.51
2022-12-28T19:59:07.520Z,27.51
2022-12-28T20:01:40.424Z,27.52
2022-12-28T20:04:13.946Z,27.52
2022-12-28T20:06:46.140Z,27.52
2022-12-28T20:09:17.006Z,27.52
2022-12-28T20:11:47.662Z,27.50
2022-12-28T20:14:24.685Z,27.47
2022-12-28T20:16:55.693Z,27.47
2022-12-28T20:19:26.649Z,27.47
2022-12-28T20:21:57.148Z,27.45
2022-12-28T20:24:27.711Z,27.46
2022-12-28T20:27:01.715Z,27.47
2022-12-28T20:29:32.666Z,27.45
2022-12-28T20:32:03.311Z,27.44
2022-12-28T20:34:36.252Z,27.43
2022-12-28T20:37:06.854Z,27.40
2022-12-28T20:39:38.071Z,27.40
2022-12-28T20:42:26.931Z,27.39
2022-12-28T20:44:59.107Z,27.38
2022-12-28T20:47:29.894Z,27.35
2022-12-28T20:50:00.798Z,27.33
2022-12-28T20:52:31.383Z,26.83
2022-12-28T20:55:02.055Z,27.31
2022-12-28T20:57:32.669Z,27.29
2022-12-28T21:00:03.595Z,27.28
2022-12-28T21:02:34.831Z,27.25
2022-12-28T21:05:06.063Z,27.23
2022-12-28T21:07:36.542Z,27.25
2022-12-28T21:10:07.426Z,27.23
2022-12-28T21:12:37.930Z,27.21
2022-12-28T21:15:09.472Z,27.20
2022-12-28T21:17:39.966Z,27.20
2022-12-28T21:20:11.303Z,27.20
2022-12-28T21:22:42.102Z,27.18
2022-12-28T21:25:12.885Z,27.16
2022-12-28T21:27:43.666Z,27.18
2022-12-28T21:30:15.023Z,27.17
2022-12-28T21:32:45.628Z,27.17
2022-12-28T21:35:16.259Z,27.15
2022-12-28T21:37:46.785Z,27.13
2022-12-28T21:40:17.464Z,27.13
2022-12-28T21:42:48.142Z,27.16
2022-12-28T21:45:18.999Z,27.15
2022-12-28T21:47:49.629Z,27.16
2022-12-28T21:50:20.200Z,27.16
2022-12-28T21:52:50.731Z,27.16
2022-12-28T21:55:41.532Z,27.16
2022-12-28T21:58:12.343Z,27.17
2022-12-28T22:01:01.265Z,27.15
2022-12-28T22:03:50.007Z,27.14
2022-12-28T22:06:20.558Z,27.11
2022-12-28T22:09:09.242Z,27.08
2022-12-28T22:11:58.098Z,27.08
2022-12-28T22:14:29.163Z,27.07
2022-12-28T22:17:00.068Z,27.06
2022-12-28T22:19:30.641Z,27.06
2022-12-28T22:22:01.300Z,27.05
2022-12-28T22:24:31.806Z,27.04
2022-12-28T22:27:02.434Z,27.03
2022-12-28T22:29:33.154Z,27.02
2022-12-28T22:32:03.775Z,27.01
2022-12-28T22:34:34.898Z,27.00
2022-12-28T22:37:05.560Z,26.99
2022-12-28T22:39:36.157Z,26.99
2022-12-28T22:42:07.014Z,26.96
2022-12-28T22:44:39.156Z,26.96
2022-12-28T22:47:10.148Z,26.94
2022-12-28T22:49:40.698Z,26.94
2022-12-28T22:52:11.821Z,26.95
2022-12-28T22:54:42.893Z,26.93
2022-12-28T22:57:13.508Z,26.93
2022-12-28T22:59:44.058Z,26.92
2022-12-28T23:02:14.912Z,26.95
2022-12-28T23:04:46.145Z,27.00
2022-12-28T23:07:16.944Z,27.05
2022-12-28T23:09:48.183Z,27.07
2022-12-28T23:12:18.701Z,27.11
2022-12-28T23:15:07.360Z,27.16
2022-12-28T23:17:37.857Z,27.23
2022-12-28T23:20:26.819Z,27.29
2022-12-28T23:23:03.759Z,27.34
2022-12-28T23:26:06.317Z,27.38
2022-12-28T23:28:37.437Z,27.42
2022-12-28T23:31:08.252Z,27.47
2022-12-28T23:33:39.329Z,27.48
2022-12-28T23:36:10.277Z,27.52
2022-12-28T23:38:41.217Z,27.57
2022-12-28T23:41:29.866Z,27.64
2022-12-28T23:44:00.745Z,27.70
2022-12-28T23:46:32.307Z,27.74
2022-12-28T23:49:03.216Z,27.80
2022-12-28T23:51:34.203Z,27.85
2022-12-28T23:54:05.577Z,27.88
2022-12-28T23:56:36.117Z,27.93
2022-12-28T23:59:06.916Z,27.98
